sensor_id;sensor_type;location;lat;lon;timestamp;temperature;humidity
66373;SHT30;53168;51.146;17.120;2024-03-08T00:01:47;0.63;72.45
66373;SHT30;53168;51.146;17.120;2024-03-08T00:04:21;0.60;72.58
66373;SHT30;53168;51.146;17.120;2024-03-08T00:06:56;0.57;72.64
66373;SHT30;53168;51.146;17.120;2024-03-08T00:09:32;0.55;72.71
66373;SHT30;53168;51.146;17.120;2024-03-08T00:12:07;0.52;72.82
66373;SHT30;53168;51.146;17.120;2024-03-08T00:14:41;0.50;72.90
66373;SHT30;53168;51.146;17.120;2024-03-08T00:17:16;0.47;72.92
66373;SHT30;53168;51.146;17.120;2024-03-08T00:19:51;0.44;72.97
66373;SHT30;53168;51.146;17.120;2024-03-08T00:22:25;0.41;73.00
66373;SHT30;53168;51.146;17.120;2024-03-08T00:25:05;0.38;73.07
66373;SHT30;53168;51.146;17.120;2024-03-08T00:27:42;0.35;73.14
66373;SHT30;53168;51.146;17.120;2024-03-08T00:30:16;0.32;73.20
66373;SHT30;53168;51.146;17.120;2024-03-08T00:32:52;0.30;73.26
66373;SHT30;53168;51.146;17.120;2024-03-08T00:35:26;0.26;73.30
66373;SHT30;53168;51.146;17.120;2024-03-08T00:38:01;0.23;73.39
66373;SHT30;53168;51.146;17.120;2024-03-08T00:40:36;0.19;73.41
66373;SHT30;53168;51.146;17.120;2024-03-08T00:43:11;0.16;73.46
66373;SHT30;53168;51.146;17.120;2024-03-08T00:45:47;0.14;73.58
66373;SHT30;53168;51.146;17.120;2024-03-08T00:48:22;0.12;73.71
66373;SHT30;53168;51.146;17.120;2024-03-08T00:50:56;0.10;73.72
66373;SHT30;53168;51.146;17.120;2024-03-08T00:53:33;0.08;73.80
66373;SHT30;53168;51.146;17.120;2024-03-08T00:56:09;0.06;73.81
66373;SHT30;53168;51.146;17.120;2024-03-08T00:58:44;0.03;73.82
66373;SHT30;53168;51.146;17.120;2024-03-08T01:01:21;0.01;73.90
66373;SHT30;53168;51.146;17.120;2024-03-08T01:03:56;-0.03;73.91
66373;SHT30;53168;51.146;17.120;2024-03-08T01:06:33;-0.06;73.95
66373;SHT30;53168;51.146;17.120;2024-03-08T01:09:09;-0.09;74.06
66373;SHT30;53168;51.146;17.120;2024-03-08T01:11:44;-0.10;74.22
66373;SHT30;53168;51.146;17.120;2024-03-08T01:14:19;-0.13;74.32
66373;SHT30;53168;51.146;17.120;2024-03-08T01:16:55;-0.13;74.40
66373;SHT30;53168;51.146;17.120;2024-03-08T01:19:30;-0.14;74.41
66373;SHT30;53168;51.146;17.120;2024-03-08T01:22:05;-0.16;74.46
66373;SHT30;53168;51.146;17.120;2024-03-08T01:24:41;-0.17;74.60
66373;SHT30;53168;51.146;17.120;2024-03-08T01:27:16;-0.19;74.65
66373;SHT30;53168;51.146;17.120;2024-03-08T01:29:50;-0.22;74.70
66373;SHT30;53168;51.146;17.120;2024-03-08T01:32:25;-0.23;74.70
66373;SHT30;53168;51.146;17.120;2024-03-08T01:35:01;-0.26;74.70
66373;SHT30;53168;51.146;17.120;2024-03-08T01:37:40;-0.28;74.76
66373;SHT30;53168;51.146;17.120;2024-03-08T01:40:14;-0.31;74.81
66373;SHT30;53168;51.146;17.120;2024-03-08T01:42:50;-0.31;74.88
66373;SHT30;53168;51.146;17.120;2024-03-08T01:45:25;-0.33;74.96
66373;SHT30;53168;51.146;17.120;2024-03-08T01:47:59;-0.33;75.10
66373;SHT30;53168;51.146;17.120;2024-03-08T01:50:34;-0.37;75.10
66373;SHT30;53168;51.146;17.120;2024-03-08T01:53:12;-0.39;75.08
66373;SHT30;53168;51.146;17.120;2024-03-08T01:55:51;-0.45;75.03
66373;SHT30;53168;51.146;17.120;2024-03-08T01:58:33;-0.49;75.00
66373;SHT30;53168;51.146;17.120;2024-03-08T02:01:13;-0.54;74.96
66373;SHT30;53168;51.146;17.120;2024-03-08T02:03:50;-0.59;75.02
66373;SHT30;53168;51.146;17.120;2024-03-08T02:06:25;-0.63;75.16
66373;SHT30;53168;51.146;17.120;2024-03-08T02:08:59;-0.63;75.28
66373;SHT30;53168;51.146;17.120;2024-03-08T02:11:40;-0.63;75.47
66373;SHT30;53168;51.146;17.120;2024-03-08T02:14:15;-0.64;75.54
66373;SHT30;53168;51.146;17.120;2024-03-08T02:16:50;-0.65;75.63
66373;SHT30;53168;51.146;17.120;2024-03-08T02:19:25;-0.67;75.69
66373;SHT30;53168;51.146;17.120;2024-03-08T02:21:59;-0.69;75.76
66373;SHT30;53168;51.146;17.120;2024-03-08T02:24:37;-0.70;75.80
66373;SHT30;53168;51.146;17.120;2024-03-08T02:27:12;-0.72;75.80
66373;SHT30;53168;51.146;17.120;2024-03-08T02:29:49;-0.71;75.77
66373;SHT30;53168;51.146;17.120;2024-03-08T02:32:27;-0.74;75.69
66373;SHT30;53168;51.146;17.120;2024-03-08T02:35:05;-0.74;75.69
66373;SHT30;53168;51.146;17.120;2024-03-08T02:37:41;-0.74;75.64
66373;SHT30;53168;51.146;17.120;2024-03-08T02:40:19;-0.74;75.60
66373;SHT30;53168;51.146;17.120;2024-03-08T02:42:53;-0.75;75.52
66373;SHT30;53168;51.146;17.120;2024-03-08T02:45:28;-0.77;75.51
66373;SHT30;53168;51.146;17.120;2024-03-08T02:48:02;-0.78;75.69
66373;SHT30;53168;51.146;17.120;2024-03-08T02:50:44;-0.78;75.77
66373;SHT30;53168;51.146;17.120;2024-03-08T02:53:19;-0.80;75.78
66373;SHT30;53168;51.146;17.120;2024-03-08T02:55:55;-0.82;75.81
66373;SHT30;53168;51.146;17.120;2024-03-08T02:58:30;-0.83;75.90
66373;SHT30;53168;51.146;17.120;2024-03-08T03:01:04;-0.85;76.00
66373;SHT30;53168;51.146;17.120;2024-03-08T03:03:44;-0.87;76.06
66373;SHT30;53168;51.146;17.120;2024-03-08T03:06:19;-0.90;76.12
66373;SHT30;53168;51.146;17.120;2024-03-08T03:08:53;-0.92;76.12
66373;SHT30;53168;51.146;17.120;2024-03-08T03:11:28;-0.95;76.18
66373;SHT30;53168;51.146;17.120;2024-03-08T03:14:03;-0.98;76.20
66373;SHT30;53168;51.146;17.120;2024-03-08T03:16:38;-1.01;76.23
66373;SHT30;53168;51.146;17.120;2024-03-08T03:19:16;-1.02;76.24
66373;SHT30;53168;51.146;17.120;2024-03-08T03:21:53;-1.05;76.28
66373;SHT30;53168;51.146;17.120;2024-03-08T03:24:35;-1.07;76.33
66373;SHT30;53168;51.146;17.120;2024-03-08T03:27:12;-1.07;76.39
66373;SHT30;53168;51.146;17.120;2024-03-08T03:29:47;-1.09;76.40
66373;SHT30;53168;51.146;17.120;2024-03-08T03:32:23;-1.10;76.41
66373;SHT30;53168;51.146;17.120;2024-03-08T03:34:58;-1.12;76.45
66373;SHT30;53168;51.146;17.120;2024-03-08T03:37:37;-1.14;76.44
66373;SHT30;53168;51.146;17.120;2024-03-08T03:40:15;-1.17;76.47
66373;SHT30;53168;51.146;17.120;2024-03-08T03:42:51;-1.20;76.49
66373;SHT30;53168;51.146;17.120;2024-03-08T03:45:26;-1.22;76.55
66373;SHT30;53168;51.146;17.120;2024-03-08T03:48:01;-1.23;76.60
66373;SHT30;53168;51.146;17.120;2024-03-08T03:50:42;-1.25;76.56
66373;SHT30;53168;51.146;17.120;2024-03-08T03:53:17;-1.27;76.57
66373;SHT30;53168;51.146;17.120;2024-03-08T03:55:51;-1.29;76.69
66373;SHT30;53168;51.146;17.120;2024-03-08T03:58:26;-1.31;76.73
66373;SHT30;53168;51.146;17.120;2024-03-08T04:01:00;-1.34;76.70
66373;SHT30;53168;51.146;17.120;2024-03-08T04:03:37;-1.36;76.77
66373;SHT30;53168;51.146;17.120;2024-03-08T04:06:15;-1.38;76.82
66373;SHT30;53168;51.146;17.120;2024-03-08T04:08:50;-1.39;76.90
66373;SHT30;53168;51.146;17.120;2024-03-08T04:11:24;-1.40;76.90
66373;SHT30;53168;51.146;17.120;2024-03-08T04:13:59;-1.42;76.90
66373;SHT30;53168;51.146;17.120;2024-03-08T04:16:34;-1.43;76.97
66373;SHT30;53168;51.146;17.120;2024-03-08T04:19:12;-1.44;77.00
66373;SHT30;53168;51.146;17.120;2024-03-08T04:21:49;-1.46;77.06
66373;SHT30;53168;51.146;17.120;2024-03-08T04:24:23;-1.45;77.10
66373;SHT30;53168;51.146;17.120;2024-03-08T04:26:58;-1.45;77.20
66373;SHT30;53168;51.146;17.120;2024-03-08T04:29:33;-1.48;77.23
66373;SHT30;53168;51.146;17.120;2024-03-08T04:32:09;-1.48;77.30
66373;SHT30;53168;51.146;17.120;2024-03-08T04:34:45;-1.49;77.37
66373;SHT30;53168;51.146;17.120;2024-03-08T04:37:21;-1.51;77.40
66373;SHT30;53168;51.146;17.120;2024-03-08T04:39:56;-1.52;77.49
66373;SHT30;53168;51.146;17.120;2024-03-08T04:42:32;-1.54;77.53
66373;SHT30;53168;51.146;17.120;2024-03-08T04:45:10;-1.57;77.60
66373;SHT30;53168;51.146;17.120;2024-03-08T04:47:47;-1.59;77.58
66373;SHT30;53168;51.146;17.120;2024-03-08T04:50:24;-1.61;77.59
66373;SHT30;53168;51.146;17.120;2024-03-08T04:53:00;-1.63;77.60
66373;SHT30;53168;51.146;17.120;2024-03-08T04:55:35;-1.64;77.70
66373;SHT30;53168;51.146;17.120;2024-03-08T04:58:10;-1.65;77.76
66373;SHT30;53168;51.146;17.120;2024-03-08T05:00:47;-1.66;77.80
66373;SHT30;53168;51.146;17.120;2024-03-08T05:03:22;-1.68;77.80
66373;SHT30;53168;51.146;17.120;2024-03-08T05:05:58;-1.70;77.81
66373;SHT30;53168;51.146;17.120;2024-03-08T05:08:33;-1.71;77.88
66373;SHT30;53168;51.146;17.120;2024-03-08T05:11:08;-1.71;77.90
66373;SHT30;53168;51.146;17.120;2024-03-08T05:13:46;-1.71;77.99
66373;SHT30;53168;51.146;17.120;2024-03-08T05:16:20;-1.69;78.11
66373;SHT30;53168;51.146;17.120;2024-03-08T05:18:56;-1.69;78.10
66373;SHT30;53168;51.146;17.120;2024-03-08T05:21:31;-1.71;78.10
66373;SHT30;53168;51.146;17.120;2024-03-08T05:24:07;-1.71;78.10
66373;SHT30;53168;51.146;17.120;2024-03-08T05:26:43;-1.71;78.10
66373;SHT30;53168;51.146;17.120;2024-03-08T05:29:21;-1.72;78.10
66373;SHT30;53168;51.146;17.120;2024-03-08T05:31:56;-1.70;78.21
66373;SHT30;53168;51.146;17.120;2024-03-08T05:34:31;-1.68;78.35
66373;SHT30;53168;51.146;17.120;2024-03-08T05:37:06;-1.66;78.40
66373;SHT30;53168;51.146;17.120;2024-03-08T05:39:40;-1.67;78.38
66373;SHT30;53168;51.146;17.120;2024-03-08T05:42:16;-1.67;78.31
66373;SHT30;53168;51.146;17.120;2024-03-08T05:44:52;-1.66;78.40
66373;SHT30;53168;51.146;17.120;2024-03-08T05:47:28;-1.66;78.46
66373;SHT30;53168;51.146;17.120;2024-03-08T05:50:06;-1.66;78.43
66373;SHT30;53168;51.146;17.120;2024-03-08T05:52:42;-1.64;78.41
66373;SHT30;53168;51.146;17.120;2024-03-08T05:55:19;-1.62;78.47
66373;SHT30;53168;51.146;17.120;2024-03-08T05:57:56;-1.59;78.47
66373;SHT30;53168;51.146;17.120;2024-03-08T06:00:32;-1.57;78.45
66373;SHT30;53168;51.146;17.120;2024-03-08T06:03:07;-1.54;78.45
66373;SHT30;53168;51.146;17.120;2024-03-08T06:05:49;-1.49;78.53
66373;SHT30;53168;51.146;17.120;2024-03-08T06:08:25;-1.44;78.54
66373;SHT30;53168;51.146;17.120;2024-03-08T06:11:02;-1.38;78.51
66373;SHT30;53168;51.146;17.120;2024-03-08T06:13:37;-1.33;78.48
66373;SHT30;53168;51.146;17.120;2024-03-08T06:16:14;-1.26;78.57
66373;SHT30;53168;51.146;17.120;2024-03-08T06:18:51;-1.19;78.48
66373;SHT30;53168;51.146;17.120;2024-03-08T06:21:27;-1.13;78.41
66373;SHT30;53168;51.146;17.120;2024-03-08T06:24:01;-1.07;78.39
66373;SHT30;53168;51.146;17.120;2024-03-08T06:26:38;-1.01;78.31
66373;SHT30;53168;51.146;17.120;2024-03-08T06:29:15;-0.93;78.27
66373;SHT30;53168;51.146;17.120;2024-03-08T06:31:51;-0.86;78.21
66373;SHT30;53168;51.146;17.120;2024-03-08T06:34:28;-0.81;78.20
66373;SHT30;53168;51.146;17.120;2024-03-08T06:37:06;-0.73;78.20
66373;SHT30;53168;51.146;17.120;2024-03-08T06:39:40;-0.64;78.11
66373;SHT30;53168;51.146;17.120;2024-03-08T06:42:18;-0.55;78.08
66373;SHT30;53168;51.146;17.120;2024-03-08T06:44:54;-0.46;78.06
66373;SHT30;53168;51.146;17.120;2024-03-08T06:47:36;-0.34;78.00
66373;SHT30;53168;51.146;17.120;2024-03-08T06:50:15;-0.24;77.90
66373;SHT30;53168;51.146;17.120;2024-03-08T06:52:54;-0.12;77.80
66373;SHT30;53168;51.146;17.120;2024-03-08T06:55:33;-0.03;77.69
66373;SHT30;53168;51.146;17.120;2024-03-08T06:58:08;0.06;77.59
66373;SHT30;53168;51.146;17.120;2024-03-08T07:00:44;0.16;77.49
66373;SHT30;53168;51.146;17.120;2024-03-08T07:03:29;0.27;77.37
66373;SHT30;53168;51.146;17.120;2024-03-08T07:06:05;0.34;77.23
66373;SHT30;53168;51.146;17.120;2024-03-08T07:08:40;0.41;77.12
66373;SHT30;53168;51.146;17.120;2024-03-08T07:11:17;0.50;77.08
66373;SHT30;53168;51.146;17.120;2024-03-08T07:13:53;0.57;77.04
66373;SHT30;53168;51.146;17.120;2024-03-08T07:16:28;0.65;76.96
66373;SHT30;53168;51.146;17.120;2024-03-08T07:19:02;0.74;76.90
66373;SHT30;53168;51.146;17.120;2024-03-08T07:21:37;0.83;76.87
66373;SHT30;53168;51.146;17.120;2024-03-08T07:24:11;0.93;76.83
66373;SHT30;53168;51.146;17.120;2024-03-08T07:27:06;1.04;76.69
66373;SHT30;53168;51.146;17.120;2024-03-08T07:29:41;1.13;76.51
66373;SHT30;53168;51.146;17.120;2024-03-08T07:32:16;1.24;76.46
66373;SHT30;53168;51.146;17.120;2024-03-08T07:34:56;1.34;76.40
66373;SHT30;53168;51.146;17.120;2024-03-08T07:37:30;1.46;76.29
66373;SHT30;53168;51.146;17.120;2024-03-08T07:40:07;1.57;76.20
66373;SHT30;53168;51.146;17.120;2024-03-08T07:42:45;1.69;76.04
66373;SHT30;53168;51.146;17.120;2024-03-08T07:45:19;1.78;75.90
66373;SHT30;53168;51.146;17.120;2024-03-08T07:47:55;1.86;75.69
66373;SHT30;53168;51.146;17.120;2024-03-08T07:50:30;1.92;75.51
66373;SHT30;53168;51.146;17.120;2024-03-08T07:53:04;2.00;75.45
66373;SHT30;53168;51.146;17.120;2024-03-08T07:55:40;2.08;75.44
66373;SHT30;53168;51.146;17.120;2024-03-08T07:58:16;2.20;75.41
66373;SHT30;53168;51.146;17.120;2024-03-08T08:00:50;2.34;75.28
66373;SHT30;53168;51.146;17.120;2024-03-08T08:03:26;2.46;75.11
66373;SHT30;53168;51.146;17.120;2024-03-08T08:06:00;2.55;74.95
66373;SHT30;53168;51.146;17.120;2024-03-08T08:08:35;2.68;74.91
66373;SHT30;53168;51.146;17.120;2024-03-08T08:11:09;2.82;74.84
66373;SHT30;53168;51.146;17.120;2024-03-08T08:13:44;2.92;74.69
66373;SHT30;53168;51.146;17.120;2024-03-08T08:16:19;3.03;74.53
66373;SHT30;53168;51.146;17.120;2024-03-08T08:18:57;3.13;74.38
66373;SHT30;53168;51.146;17.120;2024-03-08T08:21:32;3.19;74.19
66373;SHT30;53168;51.146;17.120;2024-03-08T08:24:08;3.28;74.03
66373;SHT30;53168;51.146;17.120;2024-03-08T08:26:43;3.37;74.02
66373;SHT30;53168;51.146;17.120;2024-03-08T08:29:17;3.47;73.92
66373;SHT30;53168;51.146;17.120;2024-03-08T08:31:52;3.59;73.74
66373;SHT30;53168;51.146;17.120;2024-03-08T08:34:30;3.68;73.62
66373;SHT30;53168;51.146;17.120;2024-03-08T08:37:04;3.75;73.25
66373;SHT30;53168;51.146;17.120;2024-03-08T08:39:41;3.78;72.97
66373;SHT30;53168;51.146;17.120;2024-03-08T08:42:15;3.85;73.08
66373;SHT30;53168;51.146;17.120;2024-03-08T08:44:49;3.96;73.06
66373;SHT30;53168;51.146;17.120;2024-03-08T08:47:27;4.05;72.92
66373;SHT30;53168;51.146;17.120;2024-03-08T08:50:01;4.16;72.69
66373;SHT30;53168;51.146;17.120;2024-03-08T08:52:36;4.18;72.15
66373;SHT30;53168;51.146;17.120;2024-03-08T08:55:11;4.24;72.39
66373;SHT30;53168;51.146;17.120;2024-03-08T08:57:46;4.38;72.40
66373;SHT30;53168;51.146;17.120;2024-03-08T09:00:22;4.51;71.99
66373;SHT30;53168;51.146;17.120;2024-03-08T09:02:59;4.61;71.84
66373;SHT30;53168;51.146;17.120;2024-03-08T09:05:34;4.74;71.88
66373;SHT30;53168;51.146;17.120;2024-03-08T09:08:10;4.83;71.29
66373;SHT30;53168;51.146;17.120;2024-03-08T09:10:45;4.84;70.75
66373;SHT30;53168;51.146;17.120;2024-03-08T09:13:22;4.87;70.67
66373;SHT30;53168;51.146;17.120;2024-03-08T09:16:03;4.95;70.70
66373;SHT30;53168;51.146;17.120;2024-03-08T09:18:37;5.03;70.76
66373;SHT30;53168;51.146;17.120;2024-03-08T09:21:12;5.24;71.13
66373;SHT30;53168;51.146;17.120;2024-03-08T09:23:48;5.43;70.76
66373;SHT30;53168;51.146;17.120;2024-03-08T09:26:22;5.63;70.68
66373;SHT30;53168;51.146;17.120;2024-03-08T09:29:00;5.81;70.22
66373;SHT30;53168;51.146;17.120;2024-03-08T09:31:35;5.92;69.63
66373;SHT30;53168;51.146;17.120;2024-03-08T09:34:09;5.88;68.82
66373;SHT30;53168;51.146;17.120;2024-03-08T09:36:52;5.85;69.14
66373;SHT30;53168;51.146;17.120;2024-03-08T09:39:29;5.94;69.40
66373;SHT30;53168;51.146;17.120;2024-03-08T09:42:05;6.01;69.18
66373;SHT30;53168;51.146;17.120;2024-03-08T09:44:39;6.08;68.86
66373;SHT30;53168;51.146;17.120;2024-03-08T09:47:19;6.10;68.41
66373;SHT30;53168;51.146;17.120;2024-03-08T09:50:00;6.16;68.61
66373;SHT30;53168;51.146;17.120;2024-03-08T09:52:35;6.28;68.62
66373;SHT30;53168;51.146;17.120;2024-03-08T09:55:12;6.38;68.24
66373;SHT30;53168;51.146;17.120;2024-03-08T09:57:49;6.43;68.16
66373;SHT30;53168;51.146;17.120;2024-03-08T10:00:43;6.52;67.42
66373;SHT30;53168;51.146;17.120;2024-03-08T10:03:17;6.52;67.58
66373;SHT30;53168;51.146;17.120;2024-03-08T10:05:53;6.62;67.80
66373;SHT30;53168;51.146;17.120;2024-03-08T10:08:31;6.75;67.63
66373;SHT30;53168;51.146;17.120;2024-03-08T10:11:06;6.85;67.61
66373;SHT30;53168;51.146;17.120;2024-03-08T10:13:43;6.92;67.21
66373;SHT30;53168;51.146;17.120;2024-03-08T10:16:20;6.95;66.81
66373;SHT30;53168;51.146;17.120;2024-03-08T10:18:59;6.97;66.79
66373;SHT30;53168;51.146;17.120;2024-03-08T10:21:36;7.06;66.75
66373;SHT30;53168;51.146;17.120;2024-03-08T10:24:23;7.19;66.82
66373;SHT30;53168;51.146;17.120;2024-03-08T10:27:02;7.28;66.36
66373;SHT30;53168;51.146;17.120;2024-03-08T10:29:37;7.35;65.96
66373;SHT30;53168;51.146;17.120;2024-03-08T10:32:15;7.38;65.71
66373;SHT30;53168;51.146;17.120;2024-03-08T10:34:49;7.34;65.34
66373;SHT30;53168;51.146;17.120;2024-03-08T10:37:24;7.36;65.78
66373;SHT30;53168;51.146;17.120;2024-03-08T10:40:06;7.43;65.55
66373;SHT30;53168;51.146;17.120;2024-03-08T10:42:53;7.51;65.69
66373;SHT30;53168;51.146;17.120;2024-03-08T10:45:37;7.63;65.23
66373;SHT30;53168;51.146;17.120;2024-03-08T10:48:29;7.65;64.65
66373;SHT30;53168;51.146;17.120;2024-03-08T10:51:12;7.66;64.26
66373;SHT30;53168;51.146;17.120;2024-03-08T10:53:49;7.72;64.80
66373;SHT30;53168;51.146;17.120;2024-03-08T10:56:25;7.91;64.75
66373;SHT30;53168;51.146;17.120;2024-03-08T10:59:00;7.95;63.61
66373;SHT30;53168;51.146;17.120;2024-03-08T11:01:36;7.94;63.85
66373;SHT30;53168;51.146;17.120;2024-03-08T11:04:11;7.96;63.55
66373;SHT30;53168;51.146;17.120;2024-03-08T11:06:48;7.96;63.12
66373;SHT30;53168;51.146;17.120;2024-03-08T11:09:35;7.97;63.02
66373;SHT30;53168;51.146;17.120;2024-03-08T11:12:24;7.94;62.71
66373;SHT30;53168;51.146;17.120;2024-03-08T11:15:12;8.02;63.06
66373;SHT30;53168;51.146;17.120;2024-03-08T11:17:51;8.08;62.94
66373;SHT30;53168;51.146;17.120;2024-03-08T11:20:27;8.25;63.17
66373;SHT30;53168;51.146;17.120;2024-03-08T11:23:05;8.44;63.01
66373;SHT30;53168;51.146;17.120;2024-03-08T11:25:42;8.52;62.37
66373;SHT30;53168;51.146;17.120;2024-03-08T11:28:20;8.49;61.66
66373;SHT30;53168;51.146;17.120;2024-03-08T11:31:25;8.39;61.55
66373;SHT30;53168;51.146;17.120;2024-03-08T11:34:01;8.48;62.15
66373;SHT30;53168;51.146;17.120;2024-03-08T11:36:36;8.48;60.84
66373;SHT30;53168;51.146;17.120;2024-03-08T11:39:14;8.43;61.28
66373;SHT30;53168;51.146;17.120;2024-03-08T11:41:50;8.50;61.47
66373;SHT30;53168;51.146;17.120;2024-03-08T11:44:28;8.63;61.26
66373;SHT30;53168;51.146;17.120;2024-03-08T11:47:04;9.10;61.08
66373;SHT30;53168;51.146;17.120;2024-03-08T11:49:48;9.69;60.58
66373;SHT30;53168;51.146;17.120;2024-03-08T11:52:29;10.23;60.09
66373;SHT30;53168;51.146;17.120;2024-03-08T11:55:06;10.68;59.48
66373;SHT30;53168;51.146;17.120;2024-03-08T11:57:41;10.98;58.58
66373;SHT30;53168;51.146;17.120;2024-03-08T12:00:18;11.17;57.70
66373;SHT30;53168;51.146;17.120;2024-03-08T12:03:05;11.26;57.01
66373;SHT30;53168;51.146;17.120;2024-03-08T12:05:43;11.40;57.54
66373;SHT30;53168;51.146;17.120;2024-03-08T12:08:35;11.67;57.19
66373;SHT30;53168;51.146;17.120;2024-03-08T12:11:13;11.94;56.86
66373;SHT30;53168;51.146;17.120;2024-03-08T12:14:12;12.16;55.88
66373;SHT30;53168;51.146;17.120;2024-03-08T12:17:15;12.33;55.87
66373;SHT30;53168;51.146;17.120;2024-03-08T12:20:33;12.63;56.23
66373;SHT30;53168;51.146;17.120;2024-03-08T12:23:22;13.03;56.17
66373;SHT30;53168;51.146;17.120;2024-03-08T12:26:16;13.27;54.80
66373;SHT30;53168;51.146;17.120;2024-03-08T12:29:31;13.46;54.38
66373;SHT30;53168;51.146;17.120;2024-03-08T12:32:11;13.47;54.01
66373;SHT30;53168;51.146;17.120;2024-03-08T12:35:02;13.60;53.91
66373;SHT30;53168;51.146;17.120;2024-03-08T12:37:50;13.74;53.14
66373;SHT30;53168;51.146;17.120;2024-03-08T12:40:33;13.84;53.43
66373;SHT30;53168;51.146;17.120;2024-03-08T12:43:18;14.06;53.66
66373;SHT30;53168;51.146;17.120;2024-03-08T12:46:15;14.36;53.55
66373;SHT30;53168;51.146;17.120;2024-03-08T12:49:06;14.69;52.62
66373;SHT30;53168;51.146;17.120;2024-03-08T12:51:50;14.97;51.85
66373;SHT30;53168;51.146;17.120;2024-03-08T12:54:41;14.97;51.14
66373;SHT30;53168;51.146;17.120;2024-03-08T12:57:59;15.12;52.31
66373;SHT30;53168;51.146;17.120;2024-03-08T13:01:05;15.29;50.95
66373;SHT30;53168;51.146;17.120;2024-03-08T13:04:16;15.46;50.33
66373;SHT30;53168;51.146;17.120;2024-03-08T13:07:04;15.59;50.15
66373;SHT30;53168;51.146;17.120;2024-03-08T13:09:40;15.76;49.89
66373;SHT30;53168;51.146;17.120;2024-03-08T13:12:38;15.94;49.97
66373;SHT30;53168;51.146;17.120;2024-03-08T13:15:18;16.07;49.45
66373;SHT30;53168;51.146;17.120;2024-03-08T13:17:59;16.17;48.92
66373;SHT30;53168;51.146;17.120;2024-03-08T13:20:40;16.10;47.46
66373;SHT30;53168;51.146;17.120;2024-03-08T13:23:28;16.03;48.00
66373;SHT30;53168;51.146;17.120;2024-03-08T13:26:27;16.08;48.15
66373;SHT30;53168;51.146;17.120;2024-03-08T13:29:43;16.14;46.82
66373;SHT30;53168;51.146;17.120;2024-03-08T13:32:24;15.91;46.57
66373;SHT30;53168;51.146;17.120;2024-03-08T13:35:01;15.87;47.04
66373;SHT30;53168;51.146;17.120;2024-03-08T13:37:44;15.81;45.97
66373;SHT30;53168;51.146;17.120;2024-03-08T13:40:19;15.76;46.42
66373;SHT30;53168;51.146;17.120;2024-03-08T13:42:55;15.87;46.51
66373;SHT30;53168;51.146;17.120;2024-03-08T13:45:36;16.17;46.68
66373;SHT30;53168;51.146;17.120;2024-03-08T13:48:20;16.42;45.96
66373;SHT30;53168;51.146;17.120;2024-03-08T13:51:08;16.47;45.42
66373;SHT30;53168;51.146;17.120;2024-03-08T13:53:56;16.33;44.51
66373;SHT30;53168;51.146;17.120;2024-03-08T13:56:31;16.04;44.24
66373;SHT30;53168;51.146;17.120;2024-03-08T13:59:07;15.97;45.22
66373;SHT30;53168;51.146;17.120;2024-03-08T14:05:28;16.15;44.15
66373;SHT30;53168;51.146;17.120;2024-03-08T14:08:33;16.08;44.04
66373;SHT30;53168;51.146;17.120;2024-03-08T14:11:50;16.19;44.56
66373;SHT30;53168;51.146;17.120;2024-03-08T14:14:46;16.33;44.01
66373;SHT30;53168;51.146;17.120;2024-03-08T14:17:51;16.40;43.85
66373;SHT30;53168;51.146;17.120;2024-03-08T14:21:24;16.55;43.62
66373;SHT30;53168;51.146;17.120;2024-03-08T14:27:43;16.98;43.26
66373;SHT30;53168;51.146;17.120;2024-03-08T14:31:31;16.65;42.25
66373;SHT30;53168;51.146;17.120;2024-03-08T14:35:06;16.65;43.39
66373;SHT30;53168;51.146;17.120;2024-03-08T14:38:18;16.86;42.48
66373;SHT30;53168;51.146;17.120;2024-03-08T14:45:14;16.41;42.20
66373;SHT30;53168;51.146;17.120;2024-03-08T14:47:56;16.15;41.74
66373;SHT30;53168;51.146;17.120;2024-03-08T14:50:52;15.91;42.21
66373;SHT30;53168;51.146;17.120;2024-03-08T14:53:34;16.03;42.90
66373;SHT30;53168;51.146;17.120;2024-03-08T14:57:15;16.30;42.49
66373;SHT30;53168;51.146;17.120;2024-03-08T15:00:32;16.47;42.31
66373;SHT30;53168;51.146;17.120;2024-03-08T15:03:58;16.22;41.98
66373;SHT30;53168;51.146;17.120;2024-03-08T15:07:01;15.90;41.57
66373;SHT30;53168;51.146;17.120;2024-03-08T15:09:52;15.62;42.01
66373;SHT30;53168;51.146;17.120;2024-03-08T15:13:23;15.44;42.09
66373;SHT30;53168;51.146;17.120;2024-03-08T15:16:44;15.32;42.40
66373;SHT30;53168;51.146;17.120;2024-03-08T15:20:05;15.37;42.59
66373;SHT30;53168;51.146;17.120;2024-03-08T15:23:24;15.26;42.34
66373;SHT30;53168;51.146;17.120;2024-03-08T15:26:31;15.12;42.39
66373;SHT30;53168;51.146;17.120;2024-03-08T15:33:58;13.89;43.13
66373;SHT30;53168;51.146;17.120;2024-03-08T15:37:17;12.54;44.33
66373;SHT30;53168;51.146;17.120;2024-03-08T15:41:20;11.44;45.46
66373;SHT30;53168;51.146;17.120;2024-03-08T15:44:43;10.64;46.34
66373;SHT30;53168;51.146;17.120;2024-03-08T15:51:24;9.51;47.84
66373;SHT30;53168;51.146;17.120;2024-03-08T15:58:30;9.09;48.95
66373;SHT30;53168;51.146;17.120;2024-03-08T16:01:59;9.73;48.60
66373;SHT30;53168;51.146;17.120;2024-03-08T16:18:42;10.64;48.32
66373;SHT30;53168;51.146;17.120;2024-03-08T16:21:16;10.59;48.44
66373;SHT30;53168;51.146;17.120;2024-03-08T16:23:51;10.39;48.65
66373;SHT30;53168;51.146;17.120;2024-03-08T16:27:05;9.95;49.06
66373;SHT30;53168;51.146;17.120;2024-03-08T16:30:32;9.30;49.58
66373;SHT30;53168;51.146;17.120;2024-03-08T16:33:54;8.63;50.42
66373;SHT30;53168;51.146;17.120;2024-03-08T17:14:14;5.42;55.99
66373;SHT30;53168;51.146;17.120;2024-03-08T17:16:50;5.33;56.17
66373;SHT30;53168;51.146;17.120;2024-03-08T17:19:25;5.25;56.31
66373;SHT30;53168;51.146;17.120;2024-03-08T17:22:00;5.17;56.50
66373;SHT30;53168;51.146;17.120;2024-03-08T17:30:00;4.98;57.29
66373;SHT30;53168;51.146;17.120;2024-03-08T17:32:41;4.92;57.63
66373;SHT30;53168;51.146;17.120;2024-03-08T17:35:16;4.87;57.37
66373;SHT30;53168;51.146;17.120;2024-03-08T17:37:58;4.80;57.54
66373;SHT30;53168;51.146;17.120;2024-03-08T17:40:43;4.76;58.41
66373;SHT30;53168;51.146;17.120;2024-03-08T17:43:31;4.72;58.72
66373;SHT30;53168;51.146;17.120;2024-03-08T17:46:07;4.64;58.64
66373;SHT30;53168;51.146;17.120;2024-03-08T17:48:44;4.56;58.93
66373;SHT30;53168;51.146;17.120;2024-03-08T17:51:19;4.48;58.98
66373;SHT30;53168;51.146;17.120;2024-03-08T17:53:53;4.41;59.15
66373;SHT30;53168;51.146;17.120;2024-03-08T17:56:29;4.32;59.09
66373;SHT30;53168;51.146;17.120;2024-03-08T18:39:04;3.60;61.53
66373;SHT30;53168;51.146;17.120;2024-03-08T18:41:42;3.56;61.60
66373;SHT30;53168;51.146;17.120;2024-03-08T18:44:17;3.51;61.81
66373;SHT30;53168;51.146;17.120;2024-03-08T18:46:52;3.49;62.05
66373;SHT30;53168;51.146;17.120;2024-03-08T18:49:28;3.45;62.21
66373;SHT30;53168;51.146;17.120;2024-03-08T18:52:03;3.41;62.25